Time;durP1;ratioP1;P1;durP2;ratioP2;P2;SDS_P1;SDS_P2;PMS_P1;PMS_P2;Temp;Humidity;BMP_temperature;BMP_pressure;BME280_temperature;BME280_humidity;BME280_pressure;Samples;Min_cycle;Max_cycle;Signal;HPM_P1;HPM_P2
2022/05/11 00:01:38;;;;;;;11.45;7.88;;;;;;;14.81;80.02;99569.41;5012121;28;20111;-84
2022/05/11 00:04:06;;;;;;;9.23;8.05;;;;;;;14.81;79.94;99567.63;5012545;28;20394;-85
2022/05/11 00:06:32;;;;;;;16.73;8.85;;;;;;;14.73;80.06;99552.41;5012233;28;20049;-84
2022/05/11 00:08:58;;;;;;;10.88;8.38;;;;;;;14.84;80.05;99561.34;5012333;28;20075;-84
2022/05/11 00:11:26;;;;;;;12.35;8.35;;;;;;;14.87;80.27;99559.34;5012268;28;20041;-84
2022/05/11 00:13:52;;;;;;;10.25;7.85;;;;;;;14.87;80.76;99556.72;5012094;28;20034;-84
2022/05/11 00:16:18;;;;;;;11.15;8.32;;;;;;;14.93;81.04;99550.25;5012228;28;20050;-84
2022/05/11 00:18:44;;;;;;;10.88;8.15;;;;;;;14.96;80.41;99548.28;5011910;28;20025;-84
2022/05/11 00:21:10;;;;;;;10.75;8.18;;;;;;;14.97;80.48;99543.88;5012462;28;20514;-84
2022/05/11 00:23:36;;;;;;;11.10;8.57;;;;;;;14.97;80.40;99539.47;5011881;28;20061;-85
2022/05/11 00:26:02;;;;;;;9.30;7.85;;;;;;;14.94;80.77;99529.16;5060192;28;20314;-85
2022/05/11 00:28:27;;;;;;;9.63;8.07;;;;;;;15.01;80.79;99541.88;5105611;28;20036;-85
2022/05/11 00:30:53;;;;;;;9.15;7.50;;;;;;;14.98;80.64;99528.03;5114872;28;20027;-85
2022/05/11 00:33:19;;;;;;;11.48;8.82;;;;;;;15.06;80.51;99537.16;5113202;28;20549;-84
2022/05/11 00:35:47;;;;;;;10.95;8.45;;;;;;;15.06;80.43;99538.00;5112818;28;20118;-85
2022/05/11 00:38:13;;;;;;;12.60;8.88;;;;;;;15.01;80.74;99519.13;5114779;28;20030;-85
2022/05/11 00:40:48;;;;;;;9.68;8.60;;;;;;;15.06;81.09;99521.44;5113047;28;20020;-85
2022/05/11 00:43:14;;;;;;;11.70;8.05;;;;;;;15.02;81.03;99512.09;5113087;28;20444;-84
2022/05/11 00:45:47;;;;;;;11.73;8.05;;;;;;;15.13;80.71;99522.72;5113069;28;20027;-85
2022/05/11 00:51:05;;;;;;;16.77;8.80;;;;;;;15.14;80.72;99519.13;5114728;28;20450;-85
2022/05/11 00:53:35;;;;;;;12.05;8.65;;;;;;;15.12;80.24;99515.75;5112745;28;20019;-85
2022/05/11 00:56:01;;;;;;;10.45;7.70;;;;;;;15.16;80.34;99525.94;5113307;28;20388;-85
2022/05/11 00:58:36;;;;;;;12.13;8.23;;;;;;;15.14;81.09;99522.59;5114446;28;20081;-85
2022/05/11 01:01:02;;;;;;;12.73;9.10;;;;;;;15.04;81.79;99511.03;5113005;28;20028;-85
2022/05/11 01:03:38;;;;;;;11.15;8.30;;;;;;;15.05;81.96;99507.47;5112917;28;20028;-85
2022/05/11 01:06:07;;;;;;;12.35;8.38;;;;;;;15.04;82.47;99508.41;5112613;28;20042;-85
2022/05/11 01:08:33;;;;;;;12.20;8.45;;;;;;;15.02;82.11;99499.81;5112626;28;20032;-84
2022/05/11 01:11:02;;;;;;;10.32;8.25;;;;;;;15.10;82.29;99512.41;5090920;28;20075;-85
2022/05/11 01:13:30;;;;;;;10.75;8.30;;;;;;;15.13;82.35;99513.06;5074100;28;20122;-85
2022/05/11 01:15:55;;;;;;;16.45;8.38;;;;;;;15.15;82.27;99505.91;5090846;28;20040;-85
2022/05/11 01:18:24;;;;;;;10.98;7.78;;;;;;;15.10;82.19;99500.13;5073964;28;20024;-84
2022/05/11 01:20:51;;;;;;;10.63;7.90;;;;;;;15.15;82.00;99507.69;5073739;28;20420;-85
2022/05/11 01:23:33;;;;;;;11.43;8.57;;;;;;;15.12;82.19;99498.22;5090894;28;20032;-84
2022/05/11 01:26:02;;;;;;;9.70;8.70;;;;;;;15.11;82.27;99487.84;5073967;28;20442;-84
2022/05/11 01:28:30;;;;;;;10.60;8.00;;;;;;;15.13;81.81;99501.72;5073857;28;20422;-84
2022/05/11 01:31:06;;;;;;;9.75;8.77;;;;;;;15.12;82.13;99489.53;5090484;28;20112;-84
2022/05/11 01:33:34;;;;;;;13.95;8.90;;;;;;;15.18;81.51;99494.38;5090617;28;20035;-85
2022/05/11 01:36:30;;;;;;;11.05;8.00;;;;;;;15.18;81.92;99494.38;5090724;28;20047;-85
2022/05/11 01:38:59;;;;;;;13.57;8.60;;;;;;;15.16;81.60;99489.22;5090416;28;20461;-85
2022/05/11 01:41:32;;;;;;;12.73;8.38;;;;;;;15.18;81.78;99487.34;5073385;28;20081;-84
2022/05/11 01:43:58;;;;;;;10.60;8.07;;;;;;;15.17;81.43;99487.44;5090432;28;20089;-85
2022/05/11 01:46:23;;;;;;;13.02;7.72;;;;;;;15.17;81.25;99482.22;5090304;28;20066;-85
2022/05/11 01:48:49;;;;;;;11.55;8.07;;;;;;;15.15;81.26;99479.66;5097304;28;20047;-85
2022/05/11 01:51:17;;;;;;;9.93;8.38;;;;;;;15.17;81.50;99484.84;5113223;28;20031;-85
2022/05/11 01:53:44;;;;;;;12.98;8.65;;;;;;;14.97;81.31;99447.66;5111808;28;20023;-84
2022/05/11 01:56:12;;;;;;;12.70;8.60;;;;;;;15.12;81.36;99489.53;5111724;28;20035;-85
2022/05/11 01:58:37;;;;;;;10.10;7.88;;;;;;;15.08;81.78;99477.56;5111698;28;20023;-85
2022/05/11 02:01:04;;;;;;;9.73;8.02;;;;;;;15.03;81.09;99462.13;5111798;28;20464;-85
2022/05/11 02:03:29;;;;;;;10.00;7.90;;;;;;;15.02;81.07;99463.09;5111812;28;20114;-85
2022/05/11 02:08:40;;;;;;;11.40;8.43;;;;;;;15.05;82.38;99459.44;5112981;28;20081;-85
2022/05/11 02:11:06;;;;;;;12.60;8.77;;;;;;;15.02;82.20;99462.25;5113052;28;20019;-84
2022/05/11 02:13:32;;;;;;;10.43;8.30;;;;;;;15.02;82.08;99455.22;5111583;28;20059;-84
2022/05/11 02:15:58;;;;;;;11.65;8.55;;;;;;;14.99;82.45;99468.53;5111194;28;20118;-84
2022/05/11 02:18:24;;;;;;;12.10;8.38;;;;;;;14.88;82.75;99468.44;5111478;28;20031;-85
2022/05/11 02:20:49;;;;;;;11.57;8.52;;;;;;;14.85;83.50;99466.84;5110851;28;20024;-85
2022/05/11 02:23:17;;;;;;;12.52;8.77;;;;;;;14.85;83.50;99468.63;5111265;28;20408;-85
2022/05/11 02:25:45;;;;;;;15.38;10.25;;;;;;;14.80;84.10;99462.88;5112380;28;20405;-85
2022/05/11 02:28:12;;;;;;;11.10;9.90;;;;;;;14.75;84.40;99451.81;5112977;28;20127;-85
2022/05/11 02:30:39;;;;;;;12.52;9.13;;;;;;;14.71;84.42;99444.19;5112409;28;20026;-85
2022/05/11 02:33:06;;;;;;;10.82;9.05;;;;;;;14.72;84.54;99443.25;5111177;28;20019;-85
2022/05/11 02:35:31;;;;;;;14.63;9.88;;;;;;;14.83;84.48;99460.88;5111134;28;20027;-85
2022/05/11 02:38:00;;;;;;;11.40;8.85;;;;;;;14.84;84.72;99459.09;5112406;28;20030;-85
2022/05/11 02:40:28;;;;;;;10.73;9.25;;;;;;;14.83;84.62;99458.25;5107971;28;20024;-85
2022/05/11 02:42:54;;;;;;;12.07;8.52;;;;;;;14.70;84.28;99432.00;5110889;28;20055;-85
2022/05/11 02:45:21;;;;;;;12.40;8.50;;;;;;;14.79;84.49;99445.44;5112357;28;20051;-84
2022/05/11 02:47:48;;;;;;;10.27;8.30;;;;;;;14.79;84.65;99454.16;5110622;28;20043;-85
2022/05/11 02:50:17;;;;;;;11.75;9.00;;;;;;;14.72;85.06;99453.72;5110914;28;20028;-84
2022/05/11 02:52:43;;;;;;;10.05;8.20;;;;;;;14.68;85.13;99454.88;5112247;28;20032;-85
2022/05/11 02:55:08;;;;;;;11.02;8.30;;;;;;;14.65;85.05;99460.31;5111060;28;20030;-85
2022/05/11 02:57:34;;;;;;;11.98;8.68;;;;;;;14.55;85.40;99451.38;5110595;28;20027;-84
2022/05/11 03:00:00;;;;;;;12.93;8.43;;;;;;;14.47;85.89;99448.41;5110724;28;20023;-85
2022/05/11 03:02:25;;;;;;;11.77;8.93;;;;;;;14.39;86.39;99450.69;5112178;28;20110;-85
2022/05/11 03:04:51;;;;;;;11.27;9.00;;;;;;;14.38;87.18;99451.63;5110529;28;20054;-85
2022/05/11 03:07:18;;;;;;;10.23;8.90;;;;;;;14.35;87.48;99450.03;5112277;28;20097;-85
2022/05/11 03:09:43;;;;;;;12.15;8.32;;;;;;;14.36;87.67;99462.19;5110724;28;20024;-85
2022/05/11 03:12:10;;;;;;;10.90;8.73;;;;;;;14.31;87.64;99455.56;5112168;28;20389;-85
2022/05/11 03:14:35;;;;;;;12.57;9.63;;;;;;;14.30;88.09;99459.16;5089010;28;20160;-85
2022/05/11 03:17:02;;;;;;;13.95;8.60;;;;;;;14.25;88.50;99456.00;5072052;28;20519;-85
2022/05/11 03:19:28;;;;;;;11.45;8.38;;;;;;;14.21;88.69;99460.59;5089161;28;20042;-84
2022/05/11 03:21:53;;;;;;;11.18;8.55;;;;;;;14.15;89.07;99458.34;5072116;28;20035;-84
2022/05/11 03:24:19;;;;;;;11.20;8.93;;;;;;;14.17;89.04;99454.69;5089338;28;20535;-84
2022/05/11 03:26:44;;;;;;;21.70;8.93;;;;;;;14.15;89.41;99446.06;5072091;28;20056;-84
2022/05/11 03:29:11;;;;;;;10.95;8.20;;;;;;;14.12;89.28;99440.22;5089174;28;20754;-85
2022/05/11 03:31:38;;;;;;;12.00;8.90;;;;;;;14.18;89.04;99452.91;5072130;28;20036;-85
2022/05/11 03:36:48;;;;;;;10.32;8.57;;;;;;;14.20;88.79;99451.06;5089168;28;20069;-85
2022/05/11 03:39:15;;;;;;;12.93;9.20;;;;;;;14.17;89.51;99454.69;5072055;28;20028;-84
2022/05/11 03:41:42;;;;;;;14.80;9.70;;;;;;;14.16;89.60;99457.44;5071691;28;20039;-85
2022/05/11 03:44:07;;;;;;;10.52;7.97;;;;;;;14.16;89.57;99458.25;5089001;28;20028;-84
2022/05/11 03:46:32;;;;;;;11.55;8.93;;;;;;;14.11;89.32;99454.22;5109347;28;20175;-84
2022/05/11 03:48:58;;;;;;;12.15;8.88;;;;;;;14.15;89.47;99463.56;5111661;28;20040;-84
2022/05/11 03:51:24;;;;;;;11.63;9.57;;;;;;;14.09;89.66;99451.72;5111698;28;20024;-85
2022/05/11 03:53:49;;;;;;;12.38;9.07;;;;;;;14.11;89.51;99460.31;5110114;28;20073;-85
2022/05/11 03:56:17;;;;;;;10.52;8.55;;;;;;;14.02;89.93;99442.56;5110382;28;20023;-85
2022/05/11 03:58:44;;;;;;;12.80;9.32;;;;;;;14.10;90.36;99460.41;5110122;28;20122;-84
2022/05/11 04:01:10;;;;;;;12.70;8.98;;;;;;;14.02;90.43;99452.22;5110201;28;20020;-84
2022/05/11 04:03:35;;;;;;;10.57;8.63;;;;;;;13.95;90.41;99444.75;5110490;28;20024;-85
2022/05/11 04:06:01;;;;;;;12.85;9.25;;;;;;;14.09;91.14;99458.75;5110184;28;20082;-84
2022/05/11 04:08:26;;;;;;;13.85;9.10;;;;;;;14.14;91.23;99465.38;5111596;28;20480;-84
2022/05/11 04:10:51;;;;;;;10.65;8.80;;;;;;;14.17;91.18;99452.06;5113415;28;20032;-85
2022/05/11 04:13:17;;;;;;;12.63;8.65;;;;;;;14.25;91.25;99456.81;5113783;28;20457;-85
2022/05/11 04:15:43;;;;;;;13.75;8.80;;;;;;;14.57;90.34;99440.78;5113532;28;20369;-85
2022/05/11 04:18:08;;;;;;;13.10;10.02;;;;;;;15.38;87.30;99446.63;5114023;28;20653;-85
2022/05/11 04:20:34;;;;;;;10.85;8.43;;;;;;;16.14;83.43;99450.03;5113862;28;20023;-85
2022/05/11 04:22:59;;;;;;;12.80;8.90;;;;;;;16.69;80.18;99452.03;5113474;28;20019;-85
2022/05/11 04:25:24;;;;;;;10.80;8.95;;;;;;;16.85;77.79;99417.53;5113707;28;20030;-85
2022/05/11 04:27:50;;;;;;;13.95;8.90;;;;;;;17.06;76.29;99430.84;5113418;28;20126;-85
2022/05/11 04:30:17;;;;;;;13.15;8.38;;;;;;;17.38;75.09;99445.94;5114714;28;20068;-85
2022/05/11 04:32:43;;;;;;;12.88;8.82;;;;;;;17.73;74.35;99442.31;5115620;28;20178;-85
2022/05/11 04:35:10;;;;;;;10.45;8.43;;;;;;;18.18;71.48;99449.19;5114895;28;20095;-86
2022/05/11 04:37:36;;;;;;;12.68;8.15;;;;;;;18.72;69.43;99447.44;5113422;28;20055;-81
2022/05/11 04:40:02;;;;;;;13.00;8.50;;;;;;;19.62;63.73;99458.22;5091024;28;20068;-81
2022/05/11 04:42:29;;;;;;;9.95;7.85;;;;;;;20.61;59.54;99456.47;5074388;28;20503;-81
2022/05/11 04:44:54;;;;;;;9.57;7.25;;;;;;;21.24;55.95;99455.06;5074119;28;20127;-80
2022/05/11 04:47:20;;;;;;;9.18;7.25;;;;;;;21.29;54.89;99461.63;5091192;28;20143;-81
2022/05/11 04:49:45;;;;;;;10.32;7.53;;;;;;;21.13;55.26;99461.41;5091304;28;20075;-81
2022/05/11 04:52:16;;;;;;;11.25;6.72;;;;;;;21.22;54.82;99463.19;5091514;28;20028;-81
2022/05/11 04:54:48;;;;;;;11.52;7.60;;;;;;;21.42;54.37;99458.69;5091356;28;20097;-81
2022/05/11 04:57:14;;;;;;;9.30;6.82;;;;;;;21.66;53.38;99468.78;5074190;28;20032;-81
2022/05/11 04:59:40;;;;;;;8.45;6.82;;;;;;;22.15;51.19;99469.34;5074260;28;20088;-81
2022/05/11 05:02:07;;;;;;;13.02;7.25;;;;;;;23.15;48.55;99457.63;5074017;28;20036;-81
2022/05/11 05:04:33;;;;;;;8.57;6.53;;;;;;;24.47;44.92;99465.94;5074104;28;20036;-81
2022/05/11 05:06:59;;;;;;;8.85;6.43;;;;;;;25.04;42.64;99457.94;5090950;28;20028;-82
2022/05/11 05:09:24;;;;;;;7.20;6.25;;;;;;;24.82;42.84;99464.81;5091109;28;20031;-81
2022/05/11 05:11:50;;;;;;;7.03;6.28;;;;;;;24.58;42.79;99476.28;5109816;28;20103;-82
2022/05/11 05:14:16;;;;;;;10.07;5.97;;;;;;;24.41;43.40;99468.44;5114102;27;20034;-82
2022/05/11 05:16:42;;;;;;;7.85;6.63;;;;;;;23.99;43.85;99471.97;5113871;28;20114;-81
2022/05/11 05:19:09;;;;;;;6.40;5.65;;;;;;;23.65;44.67;99464.88;5113677;28;20031;-82
2022/05/11 05:21:34;;;;;;;13.35;5.82;;;;;;;23.51;44.59;99481.38;5112047;27;20031;-81
2022/05/11 05:24:00;;;;;;;7.55;5.57;;;;;;;23.09;45.13;99474.16;5112097;28;20028;-81
2022/05/11 05:26:26;;;;;;;7.38;5.93;;;;;;;22.73;46.48;99476.88;5113582;28;20107;-81
2022/05/11 05:31:35;;;;;;;9.35;6.45;;;;;;;21.98;49.25;99476.25;5113675;28;20092;-81
2022/05/11 05:34:01;;;;;;;12.52;7.25;;;;;;;21.84;49.86;99482.06;5113274;28;20469;-81
2022/05/11 05:36:28;;;;;;;11.40;6.35;;;;;;;21.79;50.07;99476.38;5113448;28;20081;-81
2022/05/11 05:38:54;;;;;;;8.60;6.13;;;;;;;21.65;50.63;99481.16;5113120;28;20051;-81
2022/05/11 05:41:20;;;;;;;11.43;6.00;;;;;;;21.99;50.53;99454.06;5113668;28;20040;-82
2022/05/11 05:43:46;;;;;;;10.07;6.25;;;;;;;24.17;45.79;99470.03;5113354;28;20020;-82
2022/05/11 05:46:11;;;;;;;7.18;6.20;;;;;;;24.93;42.82;99476.09;5111758;28;20080;-81
2022/05/11 05:48:37;;;;;;;9.23;6.80;;;;;;;25.13;42.04;99478.28;5112768;28;20472;-82
2022/05/11 05:51:07;;;;;;;7.90;5.72;;;;;;;25.94;40.86;99467.53;5111678;28;20087;-82
2022/05/11 05:53:33;;;;;;;11.60;6.22;;;;;;;26.23;39.29;99464.19;5113064;28;20161;-82
2022/05/11 05:55:59;;;;;;;9.55;5.72;;;;;;;25.83;40.11;99476.75;5113214;28;20020;-81
2022/05/11 05:58:25;;;;;;;14.15;6.20;;;;;;;25.82;40.76;99467.06;5113429;28;20042;-81
2022/05/11 06:00:50;;;;;;;7.15;5.43;;;;;;;27.15;38.61;99477.53;5088961;28;20032;-87
2022/05/11 06:03:25;;;;;;;9.18;5.80;;;;;;;29.52;34.27;99462.31;5072434;28;20039;-88
2022/05/11 06:05:50;;;;;;;8.35;5.70;;;;;;;31.01;31.40;99474.91;5069051;28;20524;-89
2022/05/11 06:08:16;;;;;;;7.20;5.40;;;;;;;30.99;31.30;99488.59;5052948;28;20047;-89
2022/05/11 06:10:45;;;;;;;10.40;5.25;;;;;;;30.12;31.94;99481.38;5053026;28;20055;-89
2022/05/11 06:13:16;;;;;;;6.85;5.38;;;;;;;29.50;32.78;99485.84;5052812;28;20039;-89
2022/05/11 06:15:42;;;;;;;7.15;5.38;;;;;;;28.79;34.36;99487.78;5052888;28;20066;-88
2022/05/11 06:18:09;;;;;;;8.30;5.15;;;;;;;28.32;35.04;99476.59;5052881;28;20127;-88
2022/05/11 06:20:36;;;;;;;8.07;4.72;;;;;;;28.12;35.27;99482.75;5052670;28;20055;-88
2022/05/11 06:23:03;;;;;;;6.35;4.82;;;;;;;27.94;35.79;99488.50;5028367;28;20434;-88
2022/05/11 06:25:30;;;;;;;10.18;5.07;;;;;;;28.21;35.79;99492.34;5012972;28;20096;-88
2022/05/11 06:27:56;;;;;;;5.60;5.10;;;;;;;28.20;35.44;99488.81;5012603;28;20041;-88
2022/05/11 06:30:21;;;;;;;5.78;4.07;;;;;;;28.21;35.83;99489.66;5012907;28;20083;-88
2022/05/11 06:32:47;;;;;;;6.70;5.18;;;;;;;28.48;35.80;99501.50;5047777;28;20036;-89
2022/05/11 06:35:12;;;;;;;5.80;4.82;;;;;;;28.73;34.74;99492.03;5052412;28;20036;-88
2022/05/11 06:37:42;;;;;;;7.45;4.72;;;;;;;28.91;34.38;99493.44;5052598;28;20043;-88
2022/05/11 06:40:08;;;;;;;;;;;;;;;28.81;34.53;99502.63;5052166;28;20037;-88
2022/05/11 06:42:34;;;;;;;7.60;5.28;;;;;;;28.83;34.67;99505.16;5052351;28;20011;-88
2022/05/11 06:44:59;;;;;;;6.63;4.93;;;;;;;28.68;34.64;99499.84;5069319;28;20044;-88
2022/05/11 06:47:25;;;;;;;8.25;4.78;;;;;;;28.64;34.92;99495.06;5068928;28;20062;-88
2022/05/11 06:49:50;;;;;;;8.82;5.03;;;;;;;28.88;34.40;99496.53;5069280;28;20559;-88
2022/05/11 06:52:17;;;;;;;9.50;5.03;;;;;;;29.67;33.47;99485.56;5052060;28;20059;-87
2022/05/11 07:00:12;;;;;;;7.97;4.82;;;;;;;28.72;35.11;99502.97;5107983;28;20035;-87
2022/05/11 07:02:37;;;;;;;7.43;5.38;;;;;;;28.79;35.49;99499.34;5111241;28;20453;-86
2022/05/11 07:05:06;;;;;;;7.03;5.15;;;;;;;29.31;34.79;99502.66;5111827;28;20024;-87
2022/05/11 07:07:31;;;;;;;7.55;5.30;;;;;;;29.78;33.85;99488.47;5110656;28;20035;-87
2022/05/11 07:09:56;;;;;;;7.75;5.38;;;;;;;30.84;32.21;99497.88;5110389;28;20028;-87
2022/05/11 07:12:25;;;;;;;5.80;4.63;;;;;;;31.26;31.04;99497.44;5111661;28;20040;-87
2022/05/11 07:14:57;;;;;;;5.05;4.25;;;;;;;30.88;31.59;99491.88;5110098;28;20024;-87
2022/05/11 07:17:35;;;;;;;7.30;5.05;;;;;;;30.26;32.17;99490.34;5110771;28;20048;-87
2022/05/11 07:20:07;;;;;;;8.75;4.60;;;;;;;29.56;33.37;99490.44;5110143;28;20158;-88
2022/05/11 07:22:32;;;;;;;7.80;4.78;;;;;;;29.11;34.86;99480.22;5111730;28;20036;-87
2022/05/11 07:24:58;;;;;;;6.97;5.15;;;;;;;28.75;34.65;99494.56;5110154;28;20627;-87
2022/05/11 07:27:24;;;;;;;8.55;5.28;;;;;;;28.52;36.13;99490.19;5110251;28;20536;-87
2022/05/11 07:29:51;;;;;;;6.45;5.18;;;;;;;28.35;36.08;99486.09;5110329;28;20034;-87
2022/05/11 07:32:17;;;;;;;9.90;5.25;;;;;;;28.25;36.62;99483.72;5110382;28;20019;-88
2022/05/11 07:34:42;;;;;;;7.13;5.38;;;;;;;28.24;36.64;99489.28;5112074;28;20058;-84
2022/05/11 07:37:08;;;;;;;6.78;4.70;;;;;;;28.90;35.63;99481.06;5111360;28;20074;-84
2022/05/11 07:39:33;;;;;;;6.25;4.60;;;;;;;33.40;29.32;99481.75;5109142;28;20060;-84
2022/05/11 07:41:59;;;;;;;6.85;5.00;;;;;;;36.22;24.94;99486.63;5108655;28;20031;-84
2022/05/11 07:44:25;;;;;;;6.97;5.15;;;;;;;39.39;21.42;99491.38;5112169;28;20020;-82
2022/05/11 07:46:51;;;;;;;7.45;4.47;;;;;;;41.13;19.05;99475.41;5114436;28;20023;-86
2022/05/11 07:49:18;;;;;;;9.68;4.50;;;;;;;42.78;17.64;99483.31;5112811;28;20609;-86
2022/05/11 07:51:45;;;;;;;5.80;4.40;;;;;;;43.90;16.79;99484.00;5113199;28;20161;-86
2022/05/11 07:54:11;;;;;;;6.35;5.05;;;;;;;44.50;16.31;99469.66;5114350;28;20054;-85
2022/05/11 08:02:05;;;;;;;6.28;4.50;;;;;;;45.99;14.00;99468.47;5112161;28;20060;-86
2022/05/11 08:04:30;;;;;;;7.63;4.57;;;;;;;46.93;13.50;99466.75;5114517;28;20536;-86
2022/05/11 08:06:55;;;;;;;4.93;4.10;;;;;;;47.73;13.04;99462.00;5115382;28;20392;-86
2022/05/11 08:09:21;;;;;;;5.55;3.95;;;;;;;47.98;12.43;99463.16;5115354;28;20106;-86
2022/05/11 08:11:47;;;;;;;7.80;3.83;;;;;;;47.17;12.60;99460.84;5113776;28;20026;-86
2022/05/11 08:14:14;;;;;;;4.68;3.95;;;;;;;45.93;13.40;99461.44;5114518;28;20035;-86
2022/05/11 08:16:41;;;;;;;5.18;3.78;;;;;;;45.22;13.93;99459.06;5112168;28;20019;-86
2022/05/11 08:19:07;;;;;;;4.60;3.83;;;;;;;45.48;13.52;99445.63;5114756;28;20024;-85
2022/05/11 08:21:33;;;;;;;5.68;3.88;;;;;;;45.76;13.28;99465.63;5091667;28;20043;-85
2022/05/11 08:23:59;;;;;;;4.43;4.03;;;;;;;43.80;14.66;99453.94;5074406;28;20047;-85
2022/05/11 08:26:25;;;;;;;6.65;4.22;;;;;;;39.93;17.81;99449.38;5074755;28;20031;-85
2022/05/11 08:28:51;;;;;;;5.80;4.40;;;;;;;37.15;20.69;99448.28;5091782;28;20664;-85
2022/05/11 08:34:00;;;;;;;6.38;4.60;;;;;;;33.96;24.25;99441.06;5088981;28;20067;-84
2022/05/11 08:36:27;;;;;;;5.82;4.65;;;;;;;32.99;25.53;99440.84;5091567;28;20082;-85
2022/05/11 08:38:57;;;;;;;4.97;4.50;;;;;;;32.12;27.26;99429.06;5074506;28;20126;-84
2022/05/11 08:41:34;;;;;;;5.43;4.53;;;;;;;31.61;28.01;99432.59;5089042;28;20054;-85
2022/05/11 08:44:21;;;;;;;6.45;5.30;;;;;;;31.17;29.22;99430.63;5072267;28;20040;-85
2022/05/11 08:47:16;;;;;;;6.85;5.03;;;;;;;30.73;29.35;99424.91;5074718;28;20057;-84
2022/05/11 08:49:54;;;;;;;6.13;4.70;;;;;;;30.46;30.15;99432.06;5054584;28;20044;-86
2022/05/11 08:52:43;;;;;;;5.47;4.95;;;;;;;30.25;30.58;99430.41;5089131;28;20392;-84
2022/05/11 08:55:14;;;;;;;6.18;4.88;;;;;;;30.06;30.56;99429.31;5112450;28;20122;-84
2022/05/11 08:57:41;;;;;;;5.45;4.88;;;;;;;29.90;31.14;99407.38;5113148;28;20034;-84
2022/05/11 09:00:18;;;;;;;7.95;4.50;;;;;;;29.87;31.56;99421.19;5112683;28;20044;-85
2022/05/11 09:02:49;;;;;;;8.40;4.88;;;;;;;29.81;31.60;99418.28;5112966;28;20114;-84
2022/05/11 09:05:18;;;;;;;6.15;4.88;;;;;;;29.61;31.21;99400.47;5112490;28;20373;-85
2022/05/11 09:07:49;;;;;;;5.57;4.55;;;;;;;29.48;31.50;99395.84;5113746;28;20371;-85
2022/05/11 09:10:39;;;;;;;5.43;4.57;;;;;;;29.52;31.52;99415.88;5113962;28;20081;-85
2022/05/11 09:13:10;;;;;;;7.10;4.40;;;;;;;29.44;31.42;99414.19;5113906;28;20069;-85
2022/05/11 09:15:51;;;;;;;6.57;5.85;;;;;;;29.30;31.83;99407.09;5112567;28;20051;-85
2022/05/11 09:18:17;;;;;;;7.75;5.10;;;;;;;29.12;32.15;99413.00;5112377;28;20497;-85
2022/05/11 09:20:52;;;;;;;5.32;4.70;;;;;;;29.01;32.13;99402.81;5112547;28;20085;-86
2022/05/11 09:23:36;;;;;;;7.30;4.93;;;;;;;29.07;32.13;99400.16;5112300;28;20425;-85
2022/05/11 09:26:03;;;;;;;7.00;4.90;;;;;;;29.31;32.21;99404.22;5112113;28;20461;-86
2022/05/11 09:28:34;;;;;;;7.85;4.75;;;;;;;29.52;31.39;99389.88;5113900;28;20151;-84
2022/05/11 09:31:23;;;;;;;5.53;4.32;;;;;;;29.79;30.22;99389.97;5112440;28;20551;-86
2022/05/11 09:34:05;;;;;;;4.83;4.37;;;;;;;29.98;30.10;99407.19;5112428;28;20384;-84
2022/05/11 09:36:38;;;;;;;6.65;4.85;;;;;;;30.02;30.25;99408.44;5113456;28;20024;-85
2022/05/11 09:39:13;;;;;;;6.72;4.10;;;;;;;30.07;30.32;99398.72;5112063;28;20102;-86
2022/05/11 09:41:41;;;;;;;7.30;4.47;;;;;;;30.15;29.81;99386.19;5113553;28;20059;-86
2022/05/11 09:44:26;;;;;;;6.63;4.53;;;;;;;30.26;29.31;99399.84;5111992;28;20023;-87
2022/05/11 09:46:53;;;;;;;8.00;4.30;;;;;;;30.27;28.99;99389.91;5113352;27;20028;-86
2022/05/11 09:49:18;;;;;;;6.85;4.13;;;;;;;30.17;29.50;99389.47;5111865;28;20069;-86
2022/05/11 09:51:46;;;;;;;4.78;4.13;;;;;;;30.15;30.33;99413.88;5111981;28;20023;-86
2022/05/11 09:54:18;;;;;;;6.40;4.43;;;;;;;30.11;30.12;99406.38;5112952;28;20122;-86
2022/05/11 09:56:53;;;;;;;5.43;4.53;;;;;;;30.10;30.35;99402.06;5112009;28;20518;-86
2022/05/11 09:59:28;;;;;;;5.57;4.60;;;;;;;30.16;30.33;99388.66;5111570;28;20126;-86
2022/05/11 10:02:18;;;;;;;4.93;4.40;;;;;;;30.38;30.32;99397.34;5111999;28;20034;-86
2022/05/11 10:04:50;;;;;;;6.22;4.35;;;;;;;30.42;30.32;99401.28;5113094;28;20487;-86
2022/05/11 10:07:19;;;;;;;6.07;4.47;;;;;;;30.24;29.99;99376.88;5111906;28;20019;-86
2022/05/11 10:09:51;;;;;;;5.00;4.50;;;;;;;30.21;30.42;99398.78;5111627;28;20058;-84
2022/05/11 10:12:23;;;;;;;5.57;5.00;;;;;;;30.19;29.91;99387.41;5112917;28;20160;-84
2022/05/11 10:23:22;;;;;;;4.57;4.15;;;;;;;29.81;30.09;99387.94;5112745;28;20114;-84
2022/05/11 10:25:58;;;;;;;7.63;4.50;;;;;;;29.79;30.49;99381.94;5112795;28;20034;-84
2022/05/11 10:28:45;;;;;;;5.13;4.63;;;;;;;29.79;30.97;99377.41;5110998;28;20089;-84
2022/05/11 10:31:34;;;;;;;6.10;4.55;;;;;;;29.72;31.54;99389.97;5112773;28;20023;-84
2022/05/11 10:34:32;;;;;;;5.75;4.55;;;;;;;29.59;31.84;99389.94;5112589;28;20038;-85
2022/05/11 10:36:57;;;;;;;5.20;4.70;;;;;;;29.51;31.93;99396.25;5111140;28;20157;-85
2022/05/11 10:39:42;;;;;;;6.45;4.65;;;;;;;29.47;32.06;99386.97;5112411;28;20055;-84
2022/05/11 10:42:31;;;;;;;4.53;4.13;;;;;;;29.58;32.40;99389.09;5112290;28;20578;-84
2022/05/11 10:45:20;;;;;;;7.95;4.82;;;;;;;29.60;31.37;99385.38;5112154;28;20028;-84
2022/05/11 10:48:01;;;;;;;5.83;4.40;;;;;;;29.65;32.20;99377.56;5111211;28;20046;-85
2022/05/11 10:50:34;;;;;;;4.80;4.30;;;;;;;29.72;31.68;99365.00;5112305;28;20280;-84
2022/05/11 10:53:11;;;;;;;5.03;4.15;;;;;;;29.87;30.61;99362.94;5112433;28;20023;-85
2022/05/11 10:55:53;;;;;;;5.03;4.53;;;;;;;29.76;30.09;99361.69;5112236;28;20024;-84
2022/05/11 10:58:36;;;;;;;8.70;4.50;;;;;;;29.86;30.82;99371.22;5112263;28;20027;-85
2022/05/11 11:01:09;;;;;;;5.60;4.00;;;;;;;29.81;30.58;99371.81;5112358;28;20219;-84
2022/05/11 11:04:05;;;;;;;4.57;4.05;;;;;;;29.71;29.76;99363.34;5110862;28;20026;-84
2022/05/11 11:10:13;;;;;;;7.05;4.40;;;;;;;29.15;30.31;99358.94;5112558;28;20423;-84
2022/05/11 11:12:49;;;;;;;5.35;3.90;;;;;;;28.88;31.72;99365.16;5110773;28;20035;-84
2022/05/11 11:15:19;;;;;;;5.07;3.97;;;;;;;28.64;32.76;99342.31;5110735;28;20059;-84
2022/05/11 11:17:46;;;;;;;6.25;4.70;;;;;;;28.67;33.10;99358.00;5110970;28;20093;-84
2022/05/11 11:20:15;;;;;;;5.15;4.65;;;;;;;28.75;33.16;99347.16;5114822;28;20111;-84
2022/05/11 11:23:05;;;;;;;4.75;4.35;;;;;;;28.89;33.18;99340.84;5116143;28;20027;-84
2022/05/11 11:25:52;;;;;;;5.63;4.97;;;;;;;28.92;33.05;99335.09;5114793;28;20047;-84
2022/05/11 11:28:20;;;;;;;5.78;4.85;;;;;;;28.83;33.02;99317.50;5115924;28;20081;-84
2022/05/11 11:30:58;;;;;;;7.30;4.72;;;;;;;29.00;32.53;99348.38;5114612;28;20027;-84
2022/05/11 11:33:25;;;;;;;4.85;4.40;;;;;;;28.95;33.13;99336.53;5115917;28;20031;-84
2022/05/11 11:36:00;;;;;;;5.30;4.80;;;;;;;28.93;32.77;99326.00;5116190;28;20027;-84
2022/05/11 11:38:40;;;;;;;6.93;4.70;;;;;;;29.07;32.73;99343.00;5115758;28;20152;-84
2022/05/11 11:41:14;;;;;;;4.95;4.32;;;;;;;29.11;32.92;99341.59;5114492;28;20024;-84
2022/05/11 11:43:49;;;;;;;5.45;4.38;;;;;;;29.16;32.28;99336.47;5114302;28;20059;-84
2022/05/11 11:46:41;;;;;;;4.85;4.38;;;;;;;29.15;31.77;99339.34;5115742;28;20024;-84
2022/05/11 11:49:07;;;;;;;7.30;4.20;;;;;;;29.12;31.84;99337.06;5112129;28;20043;-84
2022/05/11 11:51:51;;;;;;;4.40;3.97;;;;;;;29.08;31.70;99333.97;5113693;28;20039;-84
2022/05/11 11:54:36;;;;;;;4.32;3.92;;;;;;;29.19;32.02;99330.69;5113643;28;20030;-84
2022/05/11 11:57:06;;;;;;;6.45;4.28;;;;;;;29.25;31.85;99321.88;5114324;28;20361;-84
2022/05/11 11:59:54;;;;;;;8.05;4.70;;;;;;;29.22;31.82;99319.59;5115074;28;20472;-84
2022/05/11 12:02:19;;;;;;;5.13;4.03;;;;;;;29.15;31.85;99318.72;5092301;28;20036;-85
2022/05/11 12:04:58;;;;;;;5.22;4.50;;;;;;;28.99;32.62;99309.19;5092398;28;20089;-85
2022/05/11 12:15:44;;;;;;;4.93;4.32;;;;;;;28.25;32.48;99304.28;5092692;28;20443;-85
2022/05/11 12:18:32;;;;;;;7.10;4.53;;;;;;;27.96;33.42;99299.09;5092265;28;20039;-84
2022/05/11 12:20:59;;;;;;;6.18;4.22;;;;;;;27.89;34.22;99300.88;5092078;28;20035;-85
2022/05/11 12:23:29;;;;;;;7.35;4.40;;;;;;;27.74;34.01;99306.31;5075003;28;20036;-84
2022/05/11 12:26:03;;;;;;;5.78;4.25;;;;;;;27.69;34.83;99303.34;5074628;28;20627;-84